sensor_id;sensor_type;location;lat;lon;timestamp;pressure;altitude;pressure_sealevel;temperature;humidity
53514;BME280;39768;54.148;12.174;2023-05-02T00:01:12;101229.72;;;14.25;67.52
53514;BME280;39768;54.148;12.174;2023-05-02T00:05:14;101226.41;;;14.57;66.13
53514;BME280;39768;54.148;12.174;2023-05-02T00:09:15;101230.09;;;14.51;66.59
53514;BME280;39768;54.148;12.174;2023-05-02T00:13:17;101226.75;;;14.40;68.13
53514;BME280;39768;54.148;12.174;2023-05-02T00:17:19;101224.91;;;14.43;67.58
53514;BME280;39768;54.148;12.174;2023-05-02T00:21:20;101223.66;;;14.60;68.25
53514;BME280;39768;54.148;12.174;2023-05-02T00:25:22;101225.41;;;14.62;67.67
53514;BME280;39768;54.148;12.174;2023-05-02T00:29:23;101219.66;;;14.39;69.68
53514;BME280;39768;54.148;12.174;2023-05-02T00:33:25;101220.50;;;14.39;70.92
53514;BME280;39768;54.148;12.174;2023-05-02T00:37:26;101222.59;;;14.25;72.20
53514;BME280;39768;54.148;12.174;2023-05-02T00:41:28;101218.47;;;14.10;73.60
53514;BME280;39768;54.148;12.174;2023-05-02T00:45:30;101223.41;;;14.29;71.99
53514;BME280;39768;54.148;12.174;2023-05-02T00:49:33;101221.53;;;14.34;71.70
53514;BME280;39768;54.148;12.174;2023-05-02T00:53:34;101228.00;;;14.24;73.54
53514;BME280;39768;54.148;12.174;2023-05-02T00:57:36;101227.16;;;14.22;75.14
53514;BME280;39768;54.148;12.174;2023-05-02T01:01:52;101224.88;;;14.45;75.42
53514;BME280;39768;54.148;12.174;2023-05-02T01:06:14;101226.06;;;14.30;75.32
53514;BME280;39768;54.148;12.174;2023-05-02T01:10:37;101222.41;;;14.34;76.58
53514;BME280;39768;54.148;12.174;2023-05-02T01:14:51;101226.28;;;14.21;77.68
53514;BME280;39768;54.148;12.174;2023-05-02T01:18:56;101227.41;;;14.53;77.30
53514;BME280;39768;54.148;12.174;2023-05-02T01:23:06;101222.44;;;14.33;78.34
53514;BME280;39768;54.148;12.174;2023-05-02T01:27:19;101229.97;;;14.14;81.66
53514;BME280;39768;54.148;12.174;2023-05-02T01:31:27;101237.31;;;14.03;83.70
53514;BME280;39768;54.148;12.174;2023-05-02T01:35:31;101239.09;;;14.02;86.39
53514;BME280;39768;54.148;12.174;2023-05-02T01:39:34;101244.06;;;14.22;86.00
53514;BME280;39768;54.148;12.174;2023-05-02T01:43:37;101245.34;;;14.01;88.13
53514;BME280;39768;54.148;12.174;2023-05-02T01:47:42;101254.00;;;14.14;89.17
53514;BME280;39768;54.148;12.174;2023-05-02T01:51:46;101255.09;;;14.04;92.12
53514;BME280;39768;54.148;12.174;2023-05-02T01:55:49;101265.03;;;13.96;96.06
53514;BME280;39768;54.148;12.174;2023-05-02T01:59:52;101259.19;;;14.22;97.18
53514;BME280;39768;54.148;12.174;2023-05-02T02:03:56;101264.94;;;14.00;100.00
53514;BME280;39768;54.148;12.174;2023-05-02T02:07:59;101280.13;;;13.97;100.00
53514;BME280;39768;54.148;12.174;2023-05-02T02:12:05;101267.41;;;14.11;100.00
53514;BME280;39768;54.148;12.174;2023-05-02T02:16:10;101270.38;;;14.40;100.00
53514;BME280;39768;54.148;12.174;2023-05-02T02:20:14;101263.81;;;14.12;100.00
53514;BME280;39768;54.148;12.174;2023-05-02T02:24:17;101268.69;;;14.36;100.00
53514;BME280;39768;54.148;12.174;2023-05-02T02:28:21;101267.19;;;14.65;100.00
53514;BME280;39768;54.148;12.174;2023-05-02T02:32:22;101267.78;;;14.36;100.00
53514;BME280;39768;54.148;12.174;2023-05-02T02:36:30;101280.41;;;14.28;100.00
53514;BME280;39768;54.148;12.174;2023-05-02T02:40:38;101275.53;;;14.05;100.00
53514;BME280;39768;54.148;12.174;2023-05-02T02:48:56;101269.03;;;14.18;100.00
53514;BME280;39768;54.148;12.174;2023-05-02T02:53:04;101278.50;;;13.90;100.00
53514;BME280;39768;54.148;12.174;2023-05-02T02:57:16;101276.22;;;14.16;100.00
53514;BME280;39768;54.148;12.174;2023-05-02T03:01:20;101286.59;;;13.85;100.00
53514;BME280;39768;54.148;12.174;2023-05-02T03:05:22;101295.59;;;13.80;100.00
53514;BME280;39768;54.148;12.174;2023-05-02T03:09:24;101304.25;;;13.94;100.00
53514;BME280;39768;54.148;12.174;2023-05-02T03:13:30;101307.25;;;14.22;100.00
53514;BME280;39768;54.148;12.174;2023-05-02T03:17:32;101308.34;;;14.10;100.00
53514;BME280;39768;54.148;12.174;2023-05-02T03:21:34;101310.09;;;14.12;100.00
53514;BME280;39768;54.148;12.174;2023-05-02T03:25:43;101322.44;;;14.18;100.00
53514;BME280;39768;54.148;12.174;2023-05-02T03:29:50;101337.59;;;13.68;100.00
53514;BME280;39768;54.148;12.174;2023-05-02T03:33:52;101350.78;;;13.21;100.00
53514;BME280;39768;54.148;12.174;2023-05-02T03:37:55;101366.06;;;13.08;100.00
53514;BME280;39768;54.148;12.174;2023-05-02T03:41:57;101366.19;;;12.99;100.00
53514;BME280;39768;54.148;12.174;2023-05-02T03:46:04;101373.28;;;13.00;100.00
53514;BME280;39768;54.148;12.174;2023-05-02T03:50:09;101369.97;;;12.81;100.00
53514;BME280;39768;54.148;12.174;2023-05-02T03:54:12;101386.13;;;12.67;100.00
53514;BME280;39768;54.148;12.174;2023-05-02T03:58:15;101392.47;;;12.57;100.00
53514;BME280;39768;54.148;12.174;2023-05-02T04:02:18;101391.88;;;12.31;100.00
53514;BME280;39768;54.148;12.174;2023-05-02T04:06:22;101401.78;;;12.17;100.00
53514;BME280;39768;54.148;12.174;2023-05-02T04:10:30;101415.13;;;12.15;100.00
53514;BME280;39768;54.148;12.174;2023-05-02T04:14:35;101422.88;;;12.36;100.00
53514;BME280;39768;54.148;12.174;2023-05-02T04:18:37;101431.72;;;12.42;100.00
53514;BME280;39768;54.148;12.174;2023-05-02T04:22:40;101440.13;;;11.94;100.00
53514;BME280;39768;54.148;12.174;2023-05-02T04:26:42;101449.59;;;12.26;99.39
53514;BME280;39768;54.148;12.174;2023-05-02T04:30:47;101458.53;;;12.17;100.00
53514;BME280;39768;54.148;12.174;2023-05-02T04:34:51;101468.63;;;11.80;98.32
53514;BME280;39768;54.148;12.174;2023-05-02T04:38:54;101474.91;;;11.59;90.15
53514;BME280;39768;54.148;12.174;2023-05-02T04:42:56;101486.44;;;11.63;83.53
53514;BME280;39768;54.148;12.174;2023-05-02T04:47:03;101482.13;;;11.42;80.22
53514;BME280;39768;54.148;12.174;2023-05-02T04:51:05;101503.25;;;11.63;83.02
53514;BME280;39768;54.148;12.174;2023-05-02T04:55:06;101506.09;;;11.35;81.13
53514;BME280;39768;54.148;12.174;2023-05-02T04:59:08;101520.19;;;11.52;82.26
53514;BME280;39768;54.148;12.174;2023-05-02T05:03:11;101524.75;;;11.25;84.66
53514;BME280;39768;54.148;12.174;2023-05-02T05:07:12;101541.44;;;11.53;85.15
53514;BME280;39768;54.148;12.174;2023-05-02T05:11:15;101544.19;;;11.40;83.48
53514;BME280;39768;54.148;12.174;2023-05-02T05:15:18;101545.88;;;11.51;81.67
53514;BME280;39768;54.148;12.174;2023-05-02T05:19:28;101567.06;;;11.76;79.76
53514;BME280;39768;54.148;12.174;2023-05-02T05:23:31;101563.53;;;11.64;73.44
53514;BME280;39768;54.148;12.174;2023-05-02T05:27:34;101563.63;;;11.46;72.39
53514;BME280;39768;54.148;12.174;2023-05-02T05:31:36;101570.69;;;11.53;75.05
53514;BME280;39768;54.148;12.174;2023-05-02T05:35:39;101583.09;;;11.57;77.82
53514;BME280;39768;54.148;12.174;2023-05-02T05:39:40;101588.38;;;11.63;78.78
53514;BME280;39768;54.148;12.174;2023-05-02T05:43:43;101594.66;;;11.46;80.56
53514;BME280;39768;54.148;12.174;2023-05-02T05:47:44;101599.06;;;11.51;76.99
53514;BME280;39768;54.148;12.174;2023-05-02T05:51:46;101608.88;;;11.37;77.60
53514;BME280;39768;54.148;12.174;2023-05-02T05:55:49;101618.56;;;11.50;73.17
53514;BME280;39768;54.148;12.174;2023-05-02T05:59:52;101633.63;;;11.47;73.45
53514;BME280;39768;54.148;12.174;2023-05-02T06:03:54;101645.13;;;11.62;73.94
53514;BME280;39768;54.148;12.174;2023-05-02T06:07:57;101646.88;;;11.62;70.96
53514;BME280;39768;54.148;12.174;2023-05-02T06:12:00;101661.94;;;11.77;71.06
53514;BME280;39768;54.148;12.174;2023-05-02T06:16:05;101658.34;;;11.75;69.31
53514;BME280;39768;54.148;12.174;2023-05-02T06:20:07;101666.38;;;11.62;68.86
53514;BME280;39768;54.148;12.174;2023-05-02T06:24:09;101676.13;;;11.62;69.53
53514;BME280;39768;54.148;12.174;2023-05-02T06:28:11;101675.28;;;11.51;69.03
53514;BME280;39768;54.148;12.174;2023-05-02T06:32:12;101683.22;;;11.80;67.15
53514;BME280;39768;54.148;12.174;2023-05-02T06:36:14;101685.94;;;11.55;67.44
53514;BME280;39768;54.148;12.174;2023-05-02T06:40:15;101707.13;;;11.74;67.34
53514;BME280;39768;54.148;12.174;2023-05-02T06:44:17;101702.59;;;12.08;65.43
53514;BME280;39768;54.148;12.174;2023-05-02T06:48:18;101706.97;;;12.19;61.88
53514;BME280;39768;54.148;12.174;2023-05-02T06:52:20;101715.75;;;12.40;61.91
53514;BME280;39768;54.148;12.174;2023-05-02T06:56:22;101718.50;;;12.24;61.06
53514;BME280;39768;54.148;12.174;2023-05-02T07:00:26;101725.25;;;12.79;60.20
53514;BME280;39768;54.148;12.174;2023-05-02T07:04:27;101727.31;;;12.37;62.26
53514;BME280;39768;54.148;12.174;2023-05-02T07:08:29;101747.63;;;12.58;61.17
53514;BME280;39768;54.148;12.174;2023-05-02T07:12:30;101749.47;;;12.44;60.00
53514;BME280;39768;54.148;12.174;2023-05-02T07:16:32;101758.25;;;12.61;57.57
53514;BME280;39768;54.148;12.174;2023-05-02T07:20:33;101765.19;;;12.86;57.08
53514;BME280;39768;54.148;12.174;2023-05-02T07:24:35;101771.25;;;13.06;55.81
53514;BME280;39768;54.148;12.174;2023-05-02T07:28:37;101775.59;;;13.26;55.04
53514;BME280;39768;54.148;12.174;2023-05-02T07:32:38;101773.09;;;12.97;53.58
53514;BME280;39768;54.148;12.174;2023-05-02T07:36:40;101789.91;;;13.06;52.58
53514;BME280;39768;54.148;12.174;2023-05-02T07:40:41;101793.50;;;13.02;54.30
53514;BME280;39768;54.148;12.174;2023-05-02T07:44:43;101801.31;;;13.31;54.34
53514;BME280;39768;54.148;12.174;2023-05-02T07:48:45;101806.84;;;13.02;53.68
53514;BME280;39768;54.148;12.174;2023-05-02T07:52:46;101808.63;;;13.03;53.32
53514;BME280;39768;54.148;12.174;2023-05-02T07:56:48;101818.00;;;13.56;56.34
53514;BME280;39768;54.148;12.174;2023-05-02T08:00:49;101820.03;;;13.25;53.67
53514;BME280;39768;54.148;12.174;2023-05-02T08:04:51;101819.41;;;12.82;52.32
53514;BME280;39768;54.148;12.174;2023-05-02T08:08:53;101833.69;;;12.69;55.80
53514;BME280;39768;54.148;12.174;2023-05-02T08:12:54;101839.03;;;12.61;56.30
53514;BME280;39768;54.148;12.174;2023-05-02T08:16:57;101847.72;;;12.98;54.76
53514;BME280;39768;54.148;12.174;2023-05-02T08:20:59;101849.50;;;12.99;54.17
53514;BME280;39768;54.148;12.174;2023-05-02T08:25:00;101852.16;;;13.02;53.78
53514;BME280;39768;54.148;12.174;2023-05-02T08:29:02;101859.13;;;13.31;54.67
53514;BME280;39768;54.148;12.174;2023-05-02T08:33:04;101873.44;;;13.15;52.24
53514;BME280;39768;54.148;12.174;2023-05-02T08:37:09;101874.31;;;13.15;55.55
53514;BME280;39768;54.148;12.174;2023-05-02T08:41:16;101879.78;;;12.88;53.40
53514;BME280;39768;54.148;12.174;2023-05-02T08:45:18;101889.34;;;13.30;53.28
53514;BME280;39768;54.148;12.174;2023-05-02T08:49:21;101890.09;;;13.50;53.86
53514;BME280;39768;54.148;12.174;2023-05-02T08:53:23;101898.94;;;13.57;54.21
53514;BME280;39768;54.148;12.174;2023-05-02T08:57:25;101907.63;;;13.82;55.20
53514;BME280;39768;54.148;12.174;2023-05-02T09:01:29;101916.47;;;13.90;55.15
53514;BME280;39768;54.148;12.174;2023-05-02T09:05:39;101923.72;;;13.72;54.42
53514;BME280;39768;54.148;12.174;2023-05-02T09:09:41;101921.72;;;13.96;53.70
53514;BME280;39768;54.148;12.174;2023-05-02T09:13:47;101929.69;;;14.03;52.27
53514;BME280;39768;54.148;12.174;2023-05-02T09:17:48;101936.91;;;13.91;53.83
53514;BME280;39768;54.148;12.174;2023-05-02T09:21:50;101932.09;;;14.28;56.16
53514;BME280;39768;54.148;12.174;2023-05-02T09:25:52;101947.09;;;14.45;52.69
53514;BME280;39768;54.148;12.174;2023-05-02T09:30:22;101956.34;;;14.95;53.08
53514;BME280;39768;54.148;12.174;2023-05-02T09:34:24;101963.19;;;14.36;52.90
53514;BME280;39768;54.148;12.174;2023-05-02T09:38:26;101971.28;;;14.27;53.61
53514;BME280;39768;54.148;12.174;2023-05-02T09:42:30;101981.22;;;15.00;51.36
53514;BME280;39768;54.148;12.174;2023-05-02T09:50:45;101996.09;;;14.46;50.35
53514;BME280;39768;54.148;12.174;2023-05-02T09:54:47;102004.06;;;14.51;48.29
53514;BME280;39768;54.148;12.174;2023-05-02T09:58:51;102007.88;;;14.19;49.82
53514;BME280;39768;54.148;12.174;2023-05-02T10:02:52;102008.81;;;14.13;52.92
53514;BME280;39768;54.148;12.174;2023-05-02T10:06:54;102020.50;;;13.97;51.33
53514;BME280;39768;54.148;12.174;2023-05-02T10:10:57;102018.03;;;14.77;50.79
53514;BME280;39768;54.148;12.174;2023-05-02T10:15:02;102024.19;;;14.85;50.57
53514;BME280;39768;54.148;12.174;2023-05-02T10:19:11;102027.97;;;14.67;48.98
53514;BME280;39768;54.148;12.174;2023-05-02T10:23:13;102028.38;;;15.09;47.92
53514;BME280;39768;54.148;12.174;2023-05-02T10:27:15;102026.19;;;14.65;51.16
53514;BME280;39768;54.148;12.174;2023-05-02T10:31:17;102041.41;;;14.57;50.28
53514;BME280;39768;54.148;12.174;2023-05-02T10:35:20;102036.25;;;15.21;50.14
53514;BME280;39768;54.148;12.174;2023-05-02T10:39:22;102046.59;;;14.72;48.20
53514;BME280;39768;54.148;12.174;2023-05-02T10:43:29;102050.41;;;14.46;52.31
53514;BME280;39768;54.148;12.174;2023-05-02T10:47:31;102048.28;;;14.84;53.04
53514;BME280;39768;54.148;12.174;2023-05-02T10:51:34;102055.72;;;14.53;52.00
53514;BME280;39768;54.148;12.174;2023-05-02T10:55:36;102059.78;;;15.65;50.81
53514;BME280;39768;54.148;12.174;2023-05-02T10:59:39;102060.13;;;15.38;49.53
53514;BME280;39768;54.148;12.174;2023-05-02T11:04:00;102058.72;;;15.05;49.24
53514;BME280;39768;54.148;12.174;2023-05-02T11:17:14;102055.88;;;15.20;50.01
53514;BME280;39768;54.148;12.174;2023-05-02T11:21:26;102056.38;;;15.56;50.27
53514;BME280;39768;54.148;12.174;2023-05-02T11:25:35;102062.50;;;14.84;49.79
53514;BME280;39768;54.148;12.174;2023-05-02T11:29:57;102062.50;;;15.62;50.69
53514;BME280;39768;54.148;12.174;2023-05-02T11:34:00;102079.75;;;15.38;47.00
53514;BME280;39768;54.148;12.174;2023-05-02T11:38:08;102086.88;;;15.38;48.40
53514;BME280;39768;54.148;12.174;2023-05-02T11:42:26;102082.34;;;14.63;48.47
53514;BME280;39768;54.148;12.174;2023-05-02T11:46:29;102095.41;;;14.95;50.34
53514;BME280;39768;54.148;12.174;2023-05-02T11:50:32;102103.56;;;14.81;47.36
53514;BME280;39768;54.148;12.174;2023-05-02T11:54:34;102101.19;;;14.45;48.69
53514;BME280;39768;54.148;12.174;2023-05-02T11:58:36;102101.84;;;14.73;49.75
53514;BME280;39768;54.148;12.174;2023-05-02T12:02:42;102109.81;;;14.80;48.72
53514;BME280;39768;54.148;12.174;2023-05-02T12:06:54;102113.50;;;14.64;48.22
53514;BME280;39768;54.148;12.174;2023-05-02T12:10:56;102111.59;;;14.77;48.58
53514;BME280;39768;54.148;12.174;2023-05-02T12:15:05;102123.53;;;15.30;49.70
53514;BME280;39768;54.148;12.174;2023-05-02T12:19:07;102114.03;;;15.01;46.98
53514;BME280;39768;54.148;12.174;2023-05-02T12:23:09;102126.50;;;15.02;48.34
53514;BME280;39768;54.148;12.174;2023-05-02T12:27:12;102130.03;;;15.85;47.67
53514;BME280;39768;54.148;12.174;2023-05-02T12:31:15;102141.94;;;15.62;47.00
53514;BME280;39768;54.148;12.174;2023-05-02T12:35:20;102145.59;;;15.53;46.64
53514;BME280;39768;54.148;12.174;2023-05-02T12:39:37;102142.56;;;15.83;47.14
53514;BME280;39768;54.148;12.174;2023-05-02T12:43:44;102147.19;;;15.72;46.29
53514;BME280;39768;54.148;12.174;2023-05-02T12:47:46;102153.13;;;15.93;45.37
53514;BME280;39768;54.148;12.174;2023-05-02T12:51:52;102155.44;;;16.20;45.19
53514;BME280;39768;54.148;12.174;2023-05-02T12:56:03;102164.69;;;15.98;44.32
53514;BME280;39768;54.148;12.174;2023-05-02T13:00:05;102166.72;;;15.77;44.73
53514;BME280;39768;54.148;12.174;2023-05-02T13:04:07;102172.16;;;16.37;41.47
53514;BME280;39768;54.148;12.174;2023-05-02T13:08:08;102174.66;;;15.86;41.02
53514;BME280;39768;54.148;12.174;2023-05-02T13:12:10;102178.78;;;16.10;43.12
53514;BME280;39768;54.148;12.174;2023-05-02T13:16:11;102167.16;;;16.13;41.88
53514;BME280;39768;54.148;12.174;2023-05-02T13:20:13;102172.91;;;16.47;42.50
53514;BME280;39768;54.148;12.174;2023-05-02T13:24:15;102176.13;;;16.09;39.55
53514;BME280;39768;54.148;12.174;2023-05-02T13:28:17;102178.59;;;16.24;41.38
53514;BME280;39768;54.148;12.174;2023-05-02T13:32:19;102178.38;;;16.39;42.00
53514;BME280;39768;54.148;12.174;2023-05-02T13:36:22;102177.56;;;16.33;39.09
53514;BME280;39768;54.148;12.174;2023-05-02T13:40:24;102194.19;;;16.57;39.99
53514;BME280;39768;54.148;12.174;2023-05-02T13:44:26;102192.16;;;16.13;38.89
53514;BME280;39768;54.148;12.174;2023-05-02T13:48:27;102192.25;;;16.69;42.02
53514;BME280;39768;54.148;12.174;2023-05-02T13:52:30;102191.06;;;16.86;42.42
53514;BME280;39768;54.148;12.174;2023-05-02T13:56:31;102193.84;;;16.19;43.71
53514;BME280;39768;54.148;12.174;2023-05-02T14:00:33;102188.91;;;16.51;43.50
53514;BME280;39768;54.148;12.174;2023-05-02T14:04:35;102200.28;;;16.70;43.47
53514;BME280;39768;54.148;12.174;2023-05-02T14:08:36;102199.31;;;16.76;43.17
53514;BME280;39768;54.148;12.174;2023-05-02T14:12:38;102205.72;;;16.64;42.76
53514;BME280;39768;54.148;12.174;2023-05-02T14:16:39;102197.28;;;16.32;42.02
53514;BME280;39768;54.148;12.174;2023-05-02T14:20:41;102197.59;;;15.28;42.96
53514;BME280;39768;54.148;12.174;2023-05-02T14:24:43;102204.75;;;15.26;42.90
53514;BME280;39768;54.148;12.174;2023-05-02T14:28:44;102218.34;;;15.90;42.40
53514;BME280;39768;54.148;12.174;2023-05-02T14:32:46;102212.41;;;16.34;41.32
53514;BME280;39768;54.148;12.174;2023-05-02T14:36:48;102208.50;;;15.91;42.73
53514;BME280;39768;54.148;12.174;2023-05-02T14:40:49;102216.09;;;16.27;41.84
53514;BME280;39768;54.148;12.174;2023-05-02T14:44:51;102222.69;;;16.65;41.25
53514;BME280;39768;54.148;12.174;2023-05-02T14:48:53;102226.16;;;16.73;40.86
53514;BME280;39768;54.148;12.174;2023-05-02T14:52:55;102221.31;;;16.35;41.20
53514;BME280;39768;54.148;12.174;2023-05-02T14:56:56;102222.19;;;16.37;41.09
53514;BME280;39768;54.148;12.174;2023-05-02T15:01:00;102230.38;;;16.28;41.86
53514;BME280;39768;54.148;12.174;2023-05-02T15:05:03;102235.94;;;16.11;40.41
53514;BME280;39768;54.148;12.174;2023-05-02T15:09:05;102232.38;;;16.12;40.66
53514;BME280;39768;54.148;12.174;2023-05-02T15:13:07;102238.50;;;16.20;40.79
53514;BME280;39768;54.148;12.174;2023-05-02T15:17:09;102237.00;;;15.99;40.96
53514;BME280;39768;54.148;12.174;2023-05-02T15:21:11;102240.34;;;16.81;41.48
53514;BME280;39768;54.148;12.174;2023-05-02T15:25:12;102241.75;;;16.45;39.56
53514;BME280;39768;54.148;12.174;2023-05-02T15:29:14;102243.81;;;16.23;40.25
53514;BME280;39768;54.148;12.174;2023-05-02T15:33:15;102253.09;;;16.62;39.92
53514;BME280;39768;54.148;12.174;2023-05-02T15:37:16;102255.78;;;16.62;38.85
53514;BME280;39768;54.148;12.174;2023-05-02T15:41:18;102259.16;;;16.78;38.83
53514;BME280;39768;54.148;12.174;2023-05-02T15:45:19;102252.09;;;16.74;40.09
53514;BME280;39768;54.148;12.174;2023-05-02T15:49:21;102256.78;;;16.56;39.83
53514;BME280;39768;54.148;12.174;2023-05-02T15:53:24;102257.03;;;16.38;41.92
53514;BME280;39768;54.148;12.174;2023-05-02T15:57:26;102260.56;;;16.40;41.53
53514;BME280;39768;54.148;12.174;2023-05-02T16:01:28;102271.22;;;16.46;41.22
53514;BME280;39768;54.148;12.174;2023-05-02T16:05:29;102265.50;;;16.72;41.73
53514;BME280;39768;54.148;12.174;2023-05-02T16:09:31;102263.31;;;16.99;41.91
53514;BME280;39768;54.148;12.174;2023-05-02T16:13:32;102269.78;;;16.85;42.92
53514;BME280;39768;54.148;12.174;2023-05-02T16:17:34;102272.97;;;16.47;41.87
53514;BME280;39768;54.148;12.174;2023-05-02T16:21:36;102274.75;;;16.48;41.23
53514;BME280;39768;54.148;12.174;2023-05-02T16:25:37;102275.72;;;16.44;41.95
53514;BME280;39768;54.148;12.174;2023-05-02T16:29:39;102267.53;;;16.53;41.79
53514;BME280;39768;54.148;12.174;2023-05-02T16:33:40;102273.75;;;16.57;42.14
53514;BME280;39768;54.148;12.174;2023-05-02T16:37:43;102271.25;;;16.43;42.36
53514;BME280;39768;54.148;12.174;2023-05-02T16:41:44;102279.34;;;17.02;41.00
53514;BME280;39768;54.148;12.174;2023-05-02T16:45:45;102280.78;;;16.67;40.50
53514;BME280;39768;54.148;12.174;2023-05-02T16:49:52;102286.91;;;17.32;41.03
53514;BME280;39768;54.148;12.174;2023-05-02T16:53:53;102294.94;;;17.84;39.98
53514;BME280;39768;54.148;12.174;2023-05-02T16:57:55;102296.25;;;18.51;38.49
53514;BME280;39768;54.148;12.174;2023-05-02T17:01:56;102292.88;;;19.56;36.86
53514;BME280;39768;54.148;12.174;2023-05-02T17:05:59;102297.84;;;19.35;36.25
53514;BME280;39768;54.148;12.174;2023-05-02T17:10:01;102293.97;;;18.73;36.58
53514;BME280;39768;54.148;12.174;2023-05-02T17:14:04;102291.88;;;18.86;36.59
53514;BME280;39768;54.148;12.174;2023-05-02T17:18:06;102303.06;;;18.26;37.71
53514;BME280;39768;54.148;12.174;2023-05-02T17:22:08;102308.47;;;18.67;37.67
53514;BME280;39768;54.148;12.174;2023-05-02T17:26:10;102305.88;;;17.75;38.75
53514;BME280;39768;54.148;12.174;2023-05-02T17:30:15;102305.41;;;16.92;40.54
53514;BME280;39768;54.148;12.174;2023-05-02T17:34:17;102303.59;;;16.96;41.29
53514;BME280;39768;54.148;12.174;2023-05-02T17:38:18;102311.34;;;16.52;42.45
53514;BME280;39768;54.148;12.174;2023-05-02T17:42:20;102314.53;;;16.10;43.23
53514;BME280;39768;54.148;12.174;2023-05-02T17:46:21;102302.81;;;15.30;43.63
53514;BME280;39768;54.148;12.174;2023-05-02T17:50:23;102315.25;;;15.37;44.14
53514;BME280;39768;54.148;12.174;2023-05-02T17:54:25;102310.91;;;15.22;45.84
53514;BME280;39768;54.148;12.174;2023-05-02T17:58:26;102308.88;;;15.58;45.36
53514;BME280;39768;54.148;12.174;2023-05-02T18:02:28;102313.72;;;15.02;46.05
53514;BME280;39768;54.148;12.174;2023-05-02T18:06:30;102319.94;;;15.09;46.35
53514;BME280;39768;54.148;12.174;2023-05-02T18:10:36;102311.41;;;14.43;47.80
53514;BME280;39768;54.148;12.174;2023-05-02T18:14:38;102316.75;;;14.40;49.13
53514;BME280;39768;54.148;12.174;2023-05-02T18:18:40;102327.53;;;13.96;51.66
53514;BME280;39768;54.148;12.174;2023-05-02T18:22:41;102327.50;;;14.17;51.01
53514;BME280;39768;54.148;12.174;2023-05-02T18:26:43;102331.91;;;14.30;51.15
53514;BME280;39768;54.148;12.174;2023-05-02T18:30:44;102330.22;;;14.02;52.32
53514;BME280;39768;54.148;12.174;2023-05-02T18:34:46;102335.56;;;13.96;54.37
53514;BME280;39768;54.148;12.174;2023-05-02T18:38:48;102324.94;;;13.68;56.20
53514;BME280;39768;54.148;12.174;2023-05-02T18:42:50;102327.59;;;13.70;58.50
53514;BME280;39768;54.148;12.174;2023-05-02T18:46:51;102339.19;;;13.58;58.41
53514;BME280;39768;54.148;12.174;2023-05-02T18:50:56;102348.97;;;13.39;61.94
53514;BME280;39768;54.148;12.174;2023-05-02T18:54:58;102348.06;;;13.51;62.49
53514;BME280;39768;54.148;12.174;2023-05-02T18:59:00;102351.66;;;13.35;65.69
53514;BME280;39768;54.148;12.174;2023-05-02T19:03:05;102354.31;;;13.33;67.00
53514;BME280;39768;54.148;12.174;2023-05-02T19:07:06;102352.50;;;13.37;65.42
53514;BME280;39768;54.148;12.174;2023-05-02T19:11:08;102357.84;;;13.40;66.29
53514;BME280;39768;54.148;12.174;2023-05-02T19:15:10;102370.34;;;13.50;65.21
53514;BME280;39768;54.148;12.174;2023-05-02T19:19:11;102373.84;;;13.37;66.79
53514;BME280;39768;54.148;12.174;2023-05-02T19:23:13;102373.84;;;13.25;66.98
53514;BME280;39768;54.148;12.174;2023-05-02T19:27:20;102377.41;;;13.15;67.40
53514;BME280;39768;54.148;12.174;2023-05-02T19:31:22;102386.22;;;12.97;62.61
53514;BME280;39768;54.148;12.174;2023-05-02T19:35:23;102390.66;;;12.99;61.35
53514;BME280;39768;54.148;12.174;2023-05-02T19:39:25;102389.72;;;12.81;57.03
53514;BME280;39768;54.148;12.174;2023-05-02T19:43:28;102395.91;;;12.72;57.91
53514;BME280;39768;54.148;12.174;2023-05-02T19:47:30;102401.16;;;12.54;59.21
53514;BME280;39768;54.148;12.174;2023-05-02T19:51:33;102404.78;;;12.71;58.44
53514;BME280;39768;54.148;12.174;2023-05-02T19:55:35;102405.66;;;12.68;58.98
53514;BME280;39768;54.148;12.174;2023-05-02T19:59:37;102418.06;;;12.57;60.17
53514;BME280;39768;54.148;12.174;2023-05-02T20:03:38;102423.22;;;12.28;62.20
53514;BME280;39768;54.148;12.174;2023-05-02T20:07:40;102416.13;;;12.33;60.85
53514;BME280;39768;54.148;12.174;2023-05-02T20:11:41;102420.53;;;12.24;63.40
53514;BME280;39768;54.148;12.174;2023-05-02T20:15:43;102426.59;;;12.05;63.65
53514;BME280;39768;54.148;12.174;2023-05-02T20:19:44;102430.91;;;11.89;61.82
53514;BME280;39768;54.148;12.174;2023-05-02T20:23:46;102434.63;;;12.09;61.44
53514;BME280;39768;54.148;12.174;2023-05-02T20:27:49;102432.91;;;12.14;62.23
53514;BME280;39768;54.148;12.174;2023-05-02T20:31:50;102437.41;;;12.27;63.65
53514;BME280;39768;54.148;12.174;2023-05-02T20:35:54;102442.72;;;12.26;65.82
53514;BME280;39768;54.148;12.174;2023-05-02T20:39:56;102435.56;;;12.14;67.21
53514;BME280;39768;54.148;12.174;2023-05-02T20:43:57;102447.81;;;11.92;70.05
53514;BME280;39768;54.148;12.174;2023-05-02T20:48:01;102442.44;;;11.85;70.37
53514;BME280;39768;54.148;12.174;2023-05-02T20:52:03;102443.44;;;12.00;69.18
53514;BME280;39768;54.148;12.174;2023-05-02T20:56:05;102451.09;;;11.67;70.59
53514;BME280;39768;54.148;12.174;2023-05-02T21:00:07;102447.78;;;11.91;68.69
53514;BME280;39768;54.148;12.174;2023-05-02T21:04:11;102459.22;;;11.78;67.83
53514;BME280;39768;54.148;12.174;2023-05-02T21:08:13;102451.31;;;11.90;67.06